sensor_id;sensor_type;location;lat;lon;timestamp;P1;durP1;ratioP1;P2;durP2;ratioP2
37065;SDS011;22981;43.080;25.550;2023-05-10T00:02:11;12.30;;;7.60;;
37065;SDS011;22981;43.080;25.550;2023-05-10T00:04:38;8.43;;;6.95;;
37065;SDS011;22981;43.080;25.550;2023-05-10T00:07:06;11.22;;;6.75;;
37065;SDS011;22981;43.080;25.550;2023-05-10T00:09:33;8.30;;;6.45;;
37065;SDS011;22981;43.080;25.550;2023-05-10T00:12:01;7.28;;;6.35;;
37065;SDS011;22981;43.080;25.550;2023-05-10T00:14:29;10.32;;;7.90;;
37065;SDS011;22981;43.080;25.550;2023-05-10T00:16:56;10.38;;;6.70;;
37065;SDS011;22981;43.080;25.550;2023-05-10T00:19:24;8.08;;;6.25;;
37065;SDS011;22981;43.080;25.550;2023-05-10T00:21:51;7.75;;;6.33;;
37065;SDS011;22981;43.080;25.550;2023-05-10T00:24:19;8.98;;;6.37;;
37065;SDS011;22981;43.080;25.550;2023-05-10T00:26:46;8.13;;;6.78;;
37065;SDS011;22981;43.080;25.550;2023-05-10T00:29:14;9.63;;;6.50;;
37065;SDS011;22981;43.080;25.550;2023-05-10T00:31:41;9.10;;;6.03;;
37065;SDS011;22981;43.080;25.550;2023-05-10T00:34:09;9.70;;;6.22;;
37065;SDS011;22981;43.080;25.550;2023-05-10T00:36:37;12.43;;;6.40;;
37065;SDS011;22981;43.080;25.550;2023-05-10T00:39:04;7.80;;;5.78;;
37065;SDS011;22981;43.080;25.550;2023-05-10T00:41:32;8.78;;;6.10;;
37065;SDS011;22981;43.080;25.550;2023-05-10T00:43:59;8.90;;;6.00;;
37065;SDS011;22981;43.080;25.550;2023-05-10T00:46:27;10.90;;;6.58;;
37065;SDS011;22981;43.080;25.550;2023-05-10T00:48:56;9.50;;;6.22;;
37065;SDS011;22981;43.080;25.550;2023-05-10T00:51:24;16.42;;;7.05;;
37065;SDS011;22981;43.080;25.550;2023-05-10T00:53:51;10.90;;;6.95;;
37065;SDS011;22981;43.080;25.550;2023-05-10T00:56:19;9.10;;;6.42;;
37065;SDS011;22981;43.080;25.550;2023-05-10T00:58:48;10.30;;;7.25;;
37065;SDS011;22981;43.080;25.550;2023-05-10T01:01:16;10.80;;;6.87;;
37065;SDS011;22981;43.080;25.550;2023-05-10T01:03:44;7.72;;;6.72;;
37065;SDS011;22981;43.080;25.550;2023-05-10T01:06:12;9.53;;;6.53;;
37065;SDS011;22981;43.080;25.550;2023-05-10T01:08:40;8.43;;;6.50;;
37065;SDS011;22981;43.080;25.550;2023-05-10T01:11:08;10.38;;;5.72;;
37065;SDS011;22981;43.080;25.550;2023-05-10T01:13:36;5.95;;;5.30;;
37065;SDS011;22981;43.080;25.550;2023-05-10T01:16:06;7.55;;;5.50;;
37065;SDS011;22981;43.080;25.550;2023-05-10T01:18:35;14.47;;;5.58;;
37065;SDS011;22981;43.080;25.550;2023-05-10T01:41:14;8.30;;;5.33;;
37065;SDS011;22981;43.080;25.550;2023-05-10T01:43:54;9.85;;;6.37;;
37065;SDS011;22981;43.080;25.550;2023-05-10T01:46:27;10.88;;;6.28;;
37065;SDS011;22981;43.080;25.550;2023-05-10T01:48:58;10.03;;;5.40;;
37065;SDS011;22981;43.080;25.550;2023-05-10T01:51:35;9.48;;;5.83;;
37065;SDS011;22981;43.080;25.550;2023-05-10T01:54:08;8.20;;;5.33;;
37065;SDS011;22981;43.080;25.550;2023-05-10T01:56:38;5.92;;;5.30;;
37065;SDS011;22981;43.080;25.550;2023-05-10T01:59:09;9.18;;;5.60;;
37065;SDS011;22981;43.080;25.550;2023-05-10T02:01:41;9.25;;;5.55;;
37065;SDS011;22981;43.080;25.550;2023-05-10T02:04:11;7.65;;;5.87;;
37065;SDS011;22981;43.080;25.550;2023-05-10T02:06:41;9.00;;;5.78;;
37065;SDS011;22981;43.080;25.550;2023-05-10T02:09:11;7.10;;;6.12;;
37065;SDS011;22981;43.080;25.550;2023-05-10T02:11:42;11.10;;;7.00;;
37065;SDS011;22981;43.080;25.550;2023-05-10T02:14:10;10.70;;;6.65;;
37065;SDS011;22981;43.080;25.550;2023-05-10T02:16:39;9.70;;;6.83;;
37065;SDS011;22981;43.080;25.550;2023-05-10T02:19:08;7.67;;;6.50;;
37065;SDS011;22981;43.080;25.550;2023-05-10T02:21:38;9.58;;;5.85;;
37065;SDS011;22981;43.080;25.550;2023-05-10T02:24:06;11.50;;;7.65;;
37065;SDS011;22981;43.080;25.550;2023-05-10T02:26:36;14.15;;;8.45;;
37065;SDS011;22981;43.080;25.550;2023-05-10T02:29:05;9.93;;;8.20;;
37065;SDS011;22981;43.080;25.550;2023-05-10T02:31:35;10.30;;;7.72;;
37065;SDS011;22981;43.080;25.550;2023-05-10T02:34:04;10.78;;;7.53;;
37065;SDS011;22981;43.080;25.550;2023-05-10T02:36:34;8.10;;;7.03;;
37065;SDS011;22981;43.080;25.550;2023-05-10T02:39:04;13.40;;;8.45;;
37065;SDS011;22981;43.080;25.550;2023-05-10T02:41:34;16.48;;;8.18;;
37065;SDS011;22981;43.080;25.550;2023-05-10T02:44:03;9.03;;;7.30;;
37065;SDS011;22981;43.080;25.550;2023-05-10T02:46:34;14.38;;;7.97;;
37065;SDS011;22981;43.080;25.550;2023-05-10T02:49:03;13.83;;;8.93;;
37065;SDS011;22981;43.080;25.550;2023-05-10T02:51:31;20.00;;;14.18;;
37065;SDS011;22981;43.080;25.550;2023-05-10T02:54:06;23.05;;;16.02;;
37065;SDS011;22981;43.080;25.550;2023-05-10T02:56:35;19.32;;;14.20;;
37065;SDS011;22981;43.080;25.550;2023-05-10T02:59:05;16.75;;;11.63;;
37065;SDS011;22981;43.080;25.550;2023-05-10T03:01:32;13.00;;;9.18;;
37065;SDS011;22981;43.080;25.550;2023-05-10T03:04:00;12.70;;;7.60;;
37065;SDS011;22981;43.080;25.550;2023-05-10T03:06:27;8.55;;;6.12;;
37065;SDS011;22981;43.080;25.550;2023-05-10T03:08:55;10.08;;;5.70;;
37065;SDS011;22981;43.080;25.550;2023-05-10T03:14:10;9.18;;;5.95;;
37065;SDS011;22981;43.080;25.550;2023-05-10T03:16:52;9.20;;;5.75;;
37065;SDS011;22981;43.080;25.550;2023-05-10T03:19:24;8.00;;;6.40;;
37065;SDS011;22981;43.080;25.550;2023-05-10T03:22:10;10.23;;;5.75;;
37065;SDS011;22981;43.080;25.550;2023-05-10T03:24:39;7.85;;;5.62;;
37065;SDS011;22981;43.080;25.550;2023-05-10T03:27:08;10.00;;;5.87;;
37065;SDS011;22981;43.080;25.550;2023-05-10T03:29:37;10.90;;;6.65;;
37065;SDS011;22981;43.080;25.550;2023-05-10T03:32:05;14.13;;;6.30;;
37065;SDS011;22981;43.080;25.550;2023-05-10T03:34:33;9.95;;;5.47;;
37065;SDS011;22981;43.080;25.550;2023-05-10T03:37:02;7.30;;;5.05;;
37065;SDS011;22981;43.080;25.550;2023-05-10T03:39:30;6.72;;;6.08;;
37065;SDS011;22981;43.080;25.550;2023-05-10T03:41:57;7.70;;;5.67;;
37065;SDS011;22981;43.080;25.550;2023-05-10T03:44:25;12.85;;;6.62;;
37065;SDS011;22981;43.080;25.550;2023-05-10T03:46:52;15.80;;;8.08;;
37065;SDS011;22981;43.080;25.550;2023-05-10T03:49:21;10.65;;;7.35;;
37065;SDS011;22981;43.080;25.550;2023-05-10T03:51:49;12.37;;;7.35;;
37065;SDS011;22981;43.080;25.550;2023-05-10T03:54:16;10.68;;;6.75;;
37065;SDS011;22981;43.080;25.550;2023-05-10T03:56:44;10.45;;;6.72;;
37065;SDS011;22981;43.080;25.550;2023-05-10T03:59:13;10.50;;;6.47;;
37065;SDS011;22981;43.080;25.550;2023-05-10T04:01:41;19.40;;;9.18;;
37065;SDS011;22981;43.080;25.550;2023-05-10T04:04:08;8.95;;;6.92;;
37065;SDS011;22981;43.080;25.550;2023-05-10T04:06:37;12.82;;;7.80;;
37065;SDS011;22981;43.080;25.550;2023-05-10T04:09:05;10.75;;;7.25;;
37065;SDS011;22981;43.080;25.550;2023-05-10T04:11:33;12.78;;;6.90;;
37065;SDS011;22981;43.080;25.550;2023-05-10T04:14:01;9.15;;;6.05;;
37065;SDS011;22981;43.080;25.550;2023-05-10T04:16:29;9.93;;;6.50;;
37065;SDS011;22981;43.080;25.550;2023-05-10T04:19:02;12.47;;;6.83;;
37065;SDS011;22981;43.080;25.550;2023-05-10T04:21:26;14.07;;;6.80;;
37065;SDS011;22981;43.080;25.550;2023-05-10T04:23:54;12.23;;;6.72;;
37065;SDS011;22981;43.080;25.550;2023-05-10T04:26:21;25.52;;;16.65;;
37065;SDS011;22981;43.080;25.550;2023-05-10T04:28:50;47.35;;;29.20;;
37065;SDS011;22981;43.080;25.550;2023-05-10T04:31:18;88.92;;;45.43;;
37065;SDS011;22981;43.080;25.550;2023-05-10T04:33:45;55.78;;;35.23;;
37065;SDS011;22981;43.080;25.550;2023-05-10T04:36:13;11.25;;;7.20;;
37065;SDS011;22981;43.080;25.550;2023-05-10T04:38:40;11.93;;;6.05;;
37065;SDS011;22981;43.080;25.550;2023-05-10T04:41:09;10.23;;;5.87;;
37065;SDS011;22981;43.080;25.550;2023-05-10T04:43:37;9.63;;;5.75;;
37065;SDS011;22981;43.080;25.550;2023-05-10T04:46:05;16.55;;;11.22;;
37065;SDS011;22981;43.080;25.550;2023-05-10T04:48:33;6.67;;;5.50;;
37065;SDS011;22981;43.080;25.550;2023-05-10T04:51:01;13.60;;;4.62;;
37065;SDS011;22981;43.080;25.550;2023-05-10T04:53:29;5.20;;;4.10;;
37065;SDS011;22981;43.080;25.550;2023-05-10T04:55:57;5.87;;;4.78;;
37065;SDS011;22981;43.080;25.550;2023-05-10T04:58:24;20.92;;;14.30;;
37065;SDS011;22981;43.080;25.550;2023-05-10T05:00:52;77.08;;;52.35;;
37065;SDS011;22981;43.080;25.550;2023-05-10T05:03:19;30.08;;;20.15;;
37065;SDS011;22981;43.080;25.550;2023-05-10T05:05:47;22.40;;;16.25;;
37065;SDS011;22981;43.080;25.550;2023-05-10T05:08:15;31.90;;;19.67;;
37065;SDS011;22981;43.080;25.550;2023-05-10T05:10:43;6.28;;;5.30;;
37065;SDS011;22981;43.080;25.550;2023-05-10T05:13:12;5.90;;;3.70;;
37065;SDS011;22981;43.080;25.550;2023-05-10T05:15:39;7.53;;;3.80;;
37065;SDS011;22981;43.080;25.550;2023-05-10T05:18:07;19.42;;;13.08;;
37065;SDS011;22981;43.080;25.550;2023-05-10T05:20:34;17.23;;;10.18;;
37065;SDS011;22981;43.080;25.550;2023-05-10T05:23:02;7.65;;;4.60;;
37065;SDS011;22981;43.080;25.550;2023-05-10T05:25:30;10.95;;;7.90;;
37065;SDS011;22981;43.080;25.550;2023-05-10T05:27:58;6.30;;;4.42;;
37065;SDS011;22981;43.080;25.550;2023-05-10T05:30:25;7.15;;;4.65;;
37065;SDS011;22981;43.080;25.550;2023-05-10T05:32:53;7.35;;;5.87;;
37065;SDS011;22981;43.080;25.550;2023-05-10T05:35:20;9.25;;;5.47;;
37065;SDS011;22981;43.080;25.550;2023-05-10T05:37:48;12.90;;;4.80;;
37065;SDS011;22981;43.080;25.550;2023-05-10T05:40:15;5.90;;;5.20;;
37065;SDS011;22981;43.080;25.550;2023-05-10T05:42:43;10.65;;;5.20;;
37065;SDS011;22981;43.080;25.550;2023-05-10T05:45:10;10.38;;;5.53;;
37065;SDS011;22981;43.080;25.550;2023-05-10T05:47:41;8.25;;;5.70;;
37065;SDS011;22981;43.080;25.550;2023-05-10T05:50:09;5.75;;;5.00;;
37065;SDS011;22981;43.080;25.550;2023-05-10T05:52:36;6.95;;;5.25;;
37065;SDS011;22981;43.080;25.550;2023-05-10T05:55:04;9.03;;;5.37;;
37065;SDS011;22981;43.080;25.550;2023-05-10T05:57:31;9.55;;;6.37;;
37065;SDS011;22981;43.080;25.550;2023-05-10T05:59:59;10.80;;;5.72;;
37065;SDS011;22981;43.080;25.550;2023-05-10T06:02:28;10.78;;;5.10;;
37065;SDS011;22981;43.080;25.550;2023-05-10T06:04:56;9.23;;;5.42;;
37065;SDS011;22981;43.080;25.550;2023-05-10T06:07:23;9.10;;;5.17;;
37065;SDS011;22981;43.080;25.550;2023-05-10T06:09:51;5.65;;;4.28;;
37065;SDS011;22981;43.080;25.550;2023-05-10T06:12:18;5.30;;;4.45;;
37065;SDS011;22981;43.080;25.550;2023-05-10T06:14:46;9.93;;;4.17;;
37065;SDS011;22981;43.080;25.550;2023-05-10T06:17:13;19.60;;;4.95;;
37065;SDS011;22981;43.080;25.550;2023-05-10T06:19:41;8.68;;;4.05;;
37065;SDS011;22981;43.080;25.550;2023-05-10T06:22:09;8.20;;;3.90;;
37065;SDS011;22981;43.080;25.550;2023-05-10T06:24:36;5.85;;;4.30;;
37065;SDS011;22981;43.080;25.550;2023-05-10T06:27:04;7.55;;;4.10;;
37065;SDS011;22981;43.080;25.550;2023-05-10T06:29:32;6.05;;;3.80;;
37065;SDS011;22981;43.080;25.550;2023-05-10T06:32:00;6.70;;;3.92;;
37065;SDS011;22981;43.080;25.550;2023-05-10T06:34:28;10.88;;;4.87;;
37065;SDS011;22981;43.080;25.550;2023-05-10T06:36:55;4.70;;;4.20;;
37065;SDS011;22981;43.080;25.550;2023-05-10T06:39:23;6.87;;;4.45;;
37065;SDS011;22981;43.080;25.550;2023-05-10T06:41:50;6.05;;;4.58;;
37065;SDS011;22981;43.080;25.550;2023-05-10T06:44:18;5.62;;;4.47;;
37065;SDS011;22981;43.080;25.550;2023-05-10T06:46:45;6.55;;;4.83;;
37065;SDS011;22981;43.080;25.550;2023-05-10T06:49:13;5.65;;;3.85;;
37065;SDS011;22981;43.080;25.550;2023-05-10T06:51:41;4.72;;;4.00;;
37065;SDS011;22981;43.080;25.550;2023-05-10T06:54:08;7.92;;;3.85;;
37065;SDS011;22981;43.080;25.550;2023-05-10T06:56:36;8.50;;;4.83;;
37065;SDS011;22981;43.080;25.550;2023-05-10T06:59:03;10.35;;;4.97;;
37065;SDS011;22981;43.080;25.550;2023-05-10T07:01:32;5.10;;;3.85;;
37065;SDS011;22981;43.080;25.550;2023-05-10T07:03:59;4.78;;;3.50;;
37065;SDS011;22981;43.080;25.550;2023-05-10T07:06:27;6.25;;;3.25;;
37065;SDS011;22981;43.080;25.550;2023-05-10T07:08:55;7.20;;;3.47;;
37065;SDS011;22981;43.080;25.550;2023-05-10T07:11:22;6.78;;;3.60;;
37065;SDS011;22981;43.080;25.550;2023-05-10T07:13:50;7.47;;;3.75;;
37065;SDS011;22981;43.080;25.550;2023-05-10T07:16:17;3.65;;;2.90;;
37065;SDS011;22981;43.080;25.550;2023-05-10T07:18:47;4.50;;;2.80;;
37065;SDS011;22981;43.080;25.550;2023-05-10T07:21:15;3.27;;;2.87;;
37065;SDS011;22981;43.080;25.550;2023-05-10T07:23:43;6.85;;;3.40;;
37065;SDS011;22981;43.080;25.550;2023-05-10T07:26:11;5.95;;;2.85;;
37065;SDS011;22981;43.080;25.550;2023-05-10T07:28:40;4.25;;;3.00;;
37065;SDS011;22981;43.080;25.550;2023-05-10T07:31:08;4.83;;;3.00;;
37065;SDS011;22981;43.080;25.550;2023-05-10T07:33:36;5.85;;;2.70;;
37065;SDS011;22981;43.080;25.550;2023-05-10T07:36:03;5.47;;;3.20;;
37065;SDS011;22981;43.080;25.550;2023-05-10T07:38:31;5.20;;;2.90;;
37065;SDS011;22981;43.080;25.550;2023-05-10T07:40:58;3.50;;;2.58;;
37065;SDS011;22981;43.080;25.550;2023-05-10T07:43:26;3.60;;;3.00;;
37065;SDS011;22981;43.080;25.550;2023-05-10T07:45:53;8.08;;;2.72;;
37065;SDS011;22981;43.080;25.550;2023-05-10T07:48:23;7.47;;;2.90;;
37065;SDS011;22981;43.080;25.550;2023-05-10T07:50:50;3.25;;;2.42;;
37065;SDS011;22981;43.080;25.550;2023-05-10T07:53:18;5.33;;;2.80;;
37065;SDS011;22981;43.080;25.550;2023-05-10T07:55:53;3.85;;;2.90;;
37065;SDS011;22981;43.080;25.550;2023-05-10T07:58:24;4.87;;;2.62;;
37065;SDS011;22981;43.080;25.550;2023-05-10T08:00:51;5.40;;;2.87;;
37065;SDS011;22981;43.080;25.550;2023-05-10T08:03:19;4.33;;;2.62;;
37065;SDS011;22981;43.080;25.550;2023-05-10T08:05:46;4.70;;;2.70;;
37065;SDS011;22981;43.080;25.550;2023-05-10T08:08:14;3.27;;;2.60;;
37065;SDS011;22981;43.080;25.550;2023-05-10T08:10:42;4.83;;;2.55;;
37065;SDS011;22981;43.080;25.550;2023-05-10T08:13:09;5.80;;;2.87;;
37065;SDS011;22981;43.080;25.550;2023-05-10T08:15:37;3.30;;;2.80;;
37065;SDS011;22981;43.080;25.550;2023-05-10T08:18:04;3.08;;;2.77;;
37065;SDS011;22981;43.080;25.550;2023-05-10T08:20:32;4.45;;;2.45;;
37065;SDS011;22981;43.080;25.550;2023-05-10T08:22:59;5.10;;;2.55;;
37065;SDS011;22981;43.080;25.550;2023-05-10T08:25:27;6.58;;;2.75;;
37065;SDS011;22981;43.080;25.550;2023-05-10T08:27:54;5.33;;;2.65;;
37065;SDS011;22981;43.080;25.550;2023-05-10T08:30:22;4.95;;;2.60;;
37065;SDS011;22981;43.080;25.550;2023-05-10T08:32:50;3.00;;;2.30;;
37065;SDS011;22981;43.080;25.550;2023-05-10T08:35:17;4.80;;;2.30;;
37065;SDS011;22981;43.080;25.550;2023-05-10T08:37:45;4.37;;;2.25;;
37065;SDS011;22981;43.080;25.550;2023-05-10T08:40:12;4.72;;;2.02;;
37065;SDS011;22981;43.080;25.550;2023-05-10T08:42:43;2.50;;;2.15;;
37065;SDS011;22981;43.080;25.550;2023-05-10T08:45:12;3.80;;;2.52;;
37065;SDS011;22981;43.080;25.550;2023-05-10T08:47:42;3.22;;;2.33;;
37065;SDS011;22981;43.080;25.550;2023-05-10T08:50:09;4.78;;;2.35;;
37065;SDS011;22981;43.080;25.550;2023-05-10T08:52:38;3.80;;;2.42;;
37065;SDS011;22981;43.080;25.550;2023-05-10T08:55:07;2.98;;;2.60;;
37065;SDS011;22981;43.080;25.550;2023-05-10T08:57:35;4.25;;;2.30;;
37065;SDS011;22981;43.080;25.550;2023-05-10T09:00:03;2.95;;;2.58;;
37065;SDS011;22981;43.080;25.550;2023-05-10T09:02:31;6.22;;;2.50;;
37065;SDS011;22981;43.080;25.550;2023-05-10T09:04:59;2.35;;;2.10;;
37065;SDS011;22981;43.080;25.550;2023-05-10T09:07:28;2.55;;;2.30;;
37065;SDS011;22981;43.080;25.550;2023-05-10T09:09:55;2.42;;;2.10;;
37065;SDS011;22981;43.080;25.550;2023-05-10T09:12:24;2.42;;;1.90;;
37065;SDS011;22981;43.080;25.550;2023-05-10T09:14:52;4.92;;;2.58;;
37065;SDS011;22981;43.080;25.550;2023-05-10T09:17:21;3.17;;;2.42;;
37065;SDS011;22981;43.080;25.550;2023-05-10T09:19:50;2.22;;;2.02;;
37065;SDS011;22981;43.080;25.550;2023-05-10T09:22:20;4.65;;;2.30;;
37065;SDS011;22981;43.080;25.550;2023-05-10T09:25:02;6.75;;;2.05;;
37065;SDS011;22981;43.080;25.550;2023-05-10T09:27:33;3.92;;;2.25;;
37065;SDS011;22981;43.080;25.550;2023-05-10T09:30:01;2.33;;;2.08;;
37065;SDS011;22981;43.080;25.550;2023-05-10T09:32:40;5.37;;;2.12;;
37065;SDS011;22981;43.080;25.550;2023-05-10T09:35:10;5.55;;;2.10;;
37065;SDS011;22981;43.080;25.550;2023-05-10T09:37:39;3.83;;;2.22;;
37065;SDS011;22981;43.080;25.550;2023-05-10T09:40:11;2.92;;;2.00;;
37065;SDS011;22981;43.080;25.550;2023-05-10T09:42:42;5.45;;;2.10;;
37065;SDS011;22981;43.080;25.550;2023-05-10T09:45:11;3.72;;;2.52;;
37065;SDS011;22981;43.080;25.550;2023-05-10T09:47:38;3.62;;;2.40;;
37065;SDS011;22981;43.080;25.550;2023-05-10T09:50:06;4.87;;;2.40;;
37065;SDS011;22981;43.080;25.550;2023-05-10T09:52:53;2.50;;;2.12;;
37065;SDS011;22981;43.080;25.550;2023-05-10T09:55:24;3.30;;;2.25;;
37065;SDS011;22981;43.080;25.550;2023-05-10T09:58:00;5.12;;;3.45;;
37065;SDS011;22981;43.080;25.550;2023-05-10T10:00:34;2.92;;;2.20;;
37065;SDS011;22981;43.080;25.550;2023-05-10T10:03:02;2.60;;;2.37;;
37065;SDS011;22981;43.080;25.550;2023-05-10T10:05:30;3.22;;;1.80;;
37065;SDS011;22981;43.080;25.550;2023-05-10T10:08:02;3.60;;;1.75;;
37065;SDS011;22981;43.080;25.550;2023-05-10T10:10:32;2.70;;;1.90;;
37065;SDS011;22981;43.080;25.550;2023-05-10T10:13:00;3.50;;;2.00;;
37065;SDS011;22981;43.080;25.550;2023-05-10T10:15:30;6.95;;;2.30;;
37065;SDS011;22981;43.080;25.550;2023-05-10T10:17:59;3.90;;;2.05;;
37065;SDS011;22981;43.080;25.550;2023-05-10T10:20:29;4.25;;;2.10;;
37065;SDS011;22981;43.080;25.550;2023-05-10T10:22:56;2.62;;;2.08;;
37065;SDS011;22981;43.080;25.550;2023-05-10T10:25:24;2.92;;;2.50;;
37065;SDS011;22981;43.080;25.550;2023-05-10T10:35:59;3.08;;;1.90;;
37065;SDS011;22981;43.080;25.550;2023-05-10T10:38:37;2.37;;;1.80;;
37065;SDS011;22981;43.080;25.550;2023-05-10T10:41:36;4.42;;;2.55;;
37065;SDS011;22981;43.080;25.550;2023-05-10T10:47:07;3.95;;;2.12;;
37065;SDS011;22981;43.080;25.550;2023-05-10T10:52:15;3.27;;;2.30;;
37065;SDS011;22981;43.080;25.550;2023-05-10T11:05:49;2.77;;;2.47;;
37065;SDS011;22981;43.080;25.550;2023-05-10T11:08:28;4.95;;;2.45;;
37065;SDS011;22981;43.080;25.550;2023-05-10T11:21:29;2.50;;;2.00;;
37065;SDS011;22981;43.080;25.550;2023-05-10T11:23:58;2.47;;;1.82;;
37065;SDS011;22981;43.080;25.550;2023-05-10T11:26:33;4.95;;;2.15;;
37065;SDS011;22981;43.080;25.550;2023-05-10T11:29:02;3.27;;;1.50;;
37065;SDS011;22981;43.080;25.550;2023-05-10T11:31:30;3.42;;;1.80;;
37065;SDS011;22981;43.080;25.550;2023-05-10T11:33:58;3.87;;;1.77;;
37065;SDS011;22981;43.080;25.550;2023-05-10T11:36:32;5.90;;;2.30;;
37065;SDS011;22981;43.080;25.550;2023-05-10T11:39:02;4.62;;;2.20;;
37065;SDS011;22981;43.080;25.550;2023-05-10T11:41:30;2.47;;;1.75;;
37065;SDS011;22981;43.080;25.550;2023-05-10T11:43:58;2.35;;;1.80;;
37065;SDS011;22981;43.080;25.550;2023-05-10T11:46:26;2.90;;;1.40;;
37065;SDS011;22981;43.080;25.550;2023-05-10T11:48:56;2.22;;;1.98;;
37065;SDS011;22981;43.080;25.550;2023-05-10T11:51:28;2.42;;;1.92;;
37065;SDS011;22981;43.080;25.550;2023-05-10T11:53:57;3.22;;;2.92;;
37065;SDS011;22981;43.080;25.550;2023-05-10T11:56:25;3.47;;;2.30;;
37065;SDS011;22981;43.080;25.550;2023-05-10T11:58:56;4.40;;;2.02;;
37065;SDS011;22981;43.080;25.550;2023-05-10T12:01:26;5.65;;;2.10;;
37065;SDS011;22981;43.080;25.550;2023-05-10T12:03:55;2.95;;;1.90;;
37065;SDS011;22981;43.080;25.550;2023-05-10T12:06:29;4.33;;;1.90;;
37065;SDS011;22981;43.080;25.550;2023-05-10T12:08:58;3.08;;;2.50;;
37065;SDS011;22981;43.080;25.550;2023-05-10T12:11:29;2.25;;;2.05;;
37065;SDS011;22981;43.080;25.550;2023-05-10T12:13:57;3.12;;;2.37;;
37065;SDS011;22981;43.080;25.550;2023-05-10T12:16:25;4.75;;;2.55;;
37065;SDS011;22981;43.080;25.550;2023-05-10T12:18:58;4.30;;;2.00;;
37065;SDS011;22981;43.080;25.550;2023-05-10T12:21:27;3.00;;;1.80;;
37065;SDS011;22981;43.080;25.550;2023-05-10T12:24:00;2.37;;;1.93;;
37065;SDS011;22981;43.080;25.550;2023-05-10T12:26:29;57.55;;;26.40;;
37065;SDS011;22981;43.080;25.550;2023-05-10T12:29:16;76.97;;;31.82;;
37065;SDS011;22981;43.080;25.550;2023-05-10T12:31:52;6.40;;;3.72;;
37065;SDS011;22981;43.080;25.550;2023-05-10T12:34:41;5.85;;;2.60;;
37065;SDS011;22981;43.080;25.550;2023-05-10T12:37:02;6.25;;;5.28;;
37065;SDS011;22981;43.080;25.550;2023-05-10T12:39:49;9.40;;;6.85;;
37065;SDS011;22981;43.080;25.550;2023-05-10T12:42:10;11.15;;;7.90;;
37065;SDS011;22981;43.080;25.550;2023-05-10T12:44:38;4.85;;;4.22;;
37065;SDS011;22981;43.080;25.550;2023-05-10T12:47:05;2.22;;;1.90;;
37065;SDS011;22981;43.080;25.550;2023-05-10T12:52:09;3.15;;;2.20;;
37065;SDS011;22981;43.080;25.550;2023-05-10T12:54:37;2.47;;;1.90;;
37065;SDS011;22981;43.080;25.550;2023-05-10T12:57:07;9.53;;;6.45;;
37065;SDS011;22981;43.080;25.550;2023-05-10T12:59:35;4.47;;;2.95;;
37065;SDS011;22981;43.080;25.550;2023-05-10T13:02:02;3.35;;;2.60;;
37065;SDS011;22981;43.080;25.550;2023-05-10T13:04:36;6.55;;;2.52;;
37065;SDS011;22981;43.080;25.550;2023-05-10T13:07:07;4.40;;;2.10;;
37065;SDS011;22981;43.080;25.550;2023-05-10T13:09:35;4.20;;;2.25;;
37065;SDS011;22981;43.080;25.550;2023-05-10T13:12:03;3.05;;;2.60;;
37065;SDS011;22981;43.080;25.550;2023-05-10T13:14:32;2.77;;;2.37;;
37065;SDS011;22981;43.080;25.550;2023-05-10T13:17:00;6.75;;;5.12;;
37065;SDS011;22981;43.080;25.550;2023-05-10T13:19:28;5.65;;;4.37;;
37065;SDS011;22981;43.080;25.550;2023-05-10T13:21:55;8.78;;;6.40;;
37065;SDS011;22981;43.080;25.550;2023-05-10T13:24:23;5.37;;;3.65;;
37065;SDS011;22981;43.080;25.550;2023-05-10T13:26:51;10.75;;;7.70;;
37065;SDS011;22981;43.080;25.550;2023-05-10T13:29:18;12.05;;;8.75;;
37065;SDS011;22981;43.080;25.550;2023-05-10T13:31:48;5.67;;;4.05;;
37065;SDS011;22981;43.080;25.550;2023-05-10T13:34:15;5.50;;;2.60;;
37065;SDS011;22981;43.080;25.550;2023-05-10T13:36:44;7.45;;;4.50;;
37065;SDS011;22981;43.080;25.550;2023-05-10T13:39:13;7.03;;;4.25;;
37065;SDS011;22981;43.080;25.550;2023-05-10T13:41:40;7.80;;;5.80;;
37065;SDS011;22981;43.080;25.550;2023-05-10T13:44:08;7.25;;;3.40;;
37065;SDS011;22981;43.080;25.550;2023-05-10T13:46:36;5.92;;;4.17;;
37065;SDS011;22981;43.080;25.550;2023-05-10T13:49:04;6.72;;;5.12;;
37065;SDS011;22981;43.080;25.550;2023-05-10T13:51:31;6.28;;;4.12;;
37065;SDS011;22981;43.080;25.550;2023-05-10T13:54:00;10.75;;;6.25;;
37065;SDS011;22981;43.080;25.550;2023-05-10T13:56:37;5.95;;;3.37;;
37065;SDS011;22981;43.080;25.550;2023-05-10T13:59:05;9.50;;;4.97;;
37065;SDS011;22981;43.080;25.550;2023-05-10T14:01:33;4.42;;;2.45;;
37065;SDS011;22981;43.080;25.550;2023-05-10T14:04:01;4.33;;;2.17;;
37065;SDS011;22981;43.080;25.550;2023-05-10T14:06:29;5.83;;;2.95;;
37065;SDS011;22981;43.080;25.550;2023-05-10T14:08:56;3.67;;;2.35;;
37065;SDS011;22981;43.080;25.550;2023-05-10T14:11:24;5.67;;;2.75;;
37065;SDS011;22981;43.080;25.550;2023-05-10T14:13:52;5.40;;;3.70;;
37065;SDS011;22981;43.080;25.550;2023-05-10T14:16:19;3.27;;;2.50;;
37065;SDS011;22981;43.080;25.550;2023-05-10T14:18:47;3.35;;;2.02;;
37065;SDS011;22981;43.080;25.550;2023-05-10T14:21:15;4.03;;;2.10;;
37065;SDS011;22981;43.080;25.550;2023-05-10T14:23:42;3.70;;;1.95;;
37065;SDS011;22981;43.080;25.550;2023-05-10T14:26:10;3.50;;;1.80;;
37065;SDS011;22981;43.080;25.550;2023-05-10T14:28:37;3.27;;;1.90;;
37065;SDS011;22981;43.080;25.550;2023-05-10T14:31:05;1.75;;;1.60;;
37065;SDS011;22981;43.080;25.550;2023-05-10T14:33:33;4.15;;;1.92;;
37065;SDS011;22981;43.080;25.550;2023-05-10T14:36:00;3.12;;;1.92;;
37065;SDS011;22981;43.080;25.550;2023-05-10T14:38:29;3.25;;;2.20;;
37065;SDS011;22981;43.080;25.550;2023-05-10T14:40:56;3.58;;;2.90;;
37065;SDS011;22981;43.080;25.550;2023-05-10T14:43:24;3.55;;;2.30;;
37065;SDS011;22981;43.080;25.550;2023-05-10T14:45:53;3.87;;;2.67;;
37065;SDS011;22981;43.080;25.550;2023-05-10T14:48:20;3.65;;;2.52;;
37065;SDS011;22981;43.080;25.550;2023-05-10T14:50:48;4.05;;;2.65;;
37065;SDS011;22981;43.080;25.550;2023-05-10T14:56:02;4.03;;;1.82;;
37065;SDS011;22981;43.080;25.550;2023-05-10T14:58:30;2.95;;;2.33;;
37065;SDS011;22981;43.080;25.550;2023-05-10T15:00:58;6.12;;;2.30;;
37065;SDS011;22981;43.080;25.550;2023-05-10T15:03:25;3.20;;;2.60;;
37065;SDS011;22981;43.080;25.550;2023-05-10T15:05:53;5.53;;;2.33;;
37065;SDS011;22981;43.080;25.550;2023-05-10T15:08:21;3.40;;;2.20;;
37065;SDS011;22981;43.080;25.550;2023-05-10T15:10:50;2.77;;;2.27;;
37065;SDS011;22981;43.080;25.550;2023-05-10T15:13:20;2.62;;;1.95;;
37065;SDS011;22981;43.080;25.550;2023-05-10T15:15:47;2.20;;;1.98;;
37065;SDS011;22981;43.080;25.550;2023-05-10T15:18:15;2.12;;;1.90;;
37065;SDS011;22981;43.080;25.550;2023-05-10T15:20:42;3.65;;;1.77;;
37065;SDS011;22981;43.080;25.550;2023-05-10T15:23:10;3.60;;;2.00;;
37065;SDS011;22981;43.080;25.550;2023-05-10T15:25:38;4.78;;;1.98;;
37065;SDS011;22981;43.080;25.550;2023-05-10T15:28:05;3.92;;;2.47;;
37065;SDS011;22981;43.080;25.550;2023-05-10T15:30:33;2.33;;;2.02;;
37065;SDS011;22981;43.080;25.550;2023-05-10T15:33:00;3.45;;;2.50;;
37065;SDS011;22981;43.080;25.550;2023-05-10T15:35:29;5.35;;;2.08;;
37065;SDS011;22981;43.080;25.550;2023-05-10T15:37:57;2.67;;;2.00;;
37065;SDS011;22981;43.080;25.550;2023-05-10T15:40:24;3.35;;;2.50;;
37065;SDS011;22981;43.080;25.550;2023-05-10T15:42:52;4.33;;;2.30;;
37065;SDS011;22981;43.080;25.550;2023-05-10T15:45:19;4.33;;;2.30;;